WAAAYPDN

Guest
Details From WAAA - Ujung Pandang Hasanuddin
To YPDN - Darwin Intl
Flight Number -
Tags decoded
Created
Modified
Stats Distance 804 nm / 1,488 km
Max Altitude 0 ft / 0 m
Waypoints 2
Social Downloads 1
Likes 0
Share VATSIM

Download

Looking for another format? Having issues loading an existing format? Contact us
Advertisement - Login to hide

Notes

Requested: WAAA YPDN

Route

WAAA YPDN

ID Type Via Altitude Latitude Longitude Leg Dist Tot Dist Heading (true) Name
O WAAA APT - 0 ft / 0 m -5.06163˚ 119.55404˚ - 0 nm - Ujung Pandang Hasanuddin
O YPDN APT - 0 ft / 0 m -12.41506˚ 130.87528˚ 803 nm 803 nm 124° / 122° Darwin Intl

Altitude Profile

Advertisement - Login to hide

Weather


0- 5 10 15 20 25 30 35+ Temperature / ° C

Clouds and Precipitation
Forecast for 2017-12-12 06:00 UTC. Updated 2 hours ago

Ground ~20,000 ft ~40,000 ft Winds

WAAA

Details ICAO WAAA (UPG)
Name Ujung Pandang Hasanuddin
Region Indonesia
Timezone Asia/Makassar (UTC+8.0)
Stats Elevation 47 ft / 14 m (AMSL)
Location -5.061630° 119.554043°
Runways 1
Magnetic Variation 0.852° E

METAR

WAAA 120630Z 29009KT 260V330 9999 SCT019 32/25 Q1007 NOSIG

Decode

TAF

TAF WAAA 120500Z 1206/1312 31008KT 9000 SCT019 TEMPO 1206/1210 4000 TSRA FEW017CB BECMG 1211/1213 09004KT 7000 BECMG 1301/1303 30010KT 9999

Decode

Departure Runways

ID Width Length Bearing (true) Bearing (mag) Surface Threshold Offset Overrun Length
13 148 ft / 45 m 8,214 ft / 2,504 m 130.71° 129.86° Asphalt 0 ft / 0 m 200 ft / 61 m
31 148 ft / 45 m 8,214 ft / 2,504 m 310.71° 309.86° Asphalt 0 ft / 0 m 200 ft / 61 m

YPDN

Details ICAO YPDN (DRW)
Name Darwin Intl
Region Australia
Timezone Australia/Darwin (UTC+9.5)
Stats Elevation 102 ft / 31 m (AMSL)
Location -12.415064° 130.875278°
Runways 2
Magnetic Variation 2.670° E

METAR

YPDN 120630Z 25009KT 9999 VCSH FEW034 SCT049 BKN270 FEW034TCU 32/24 Q1007 FM0730 30010KT 9999 FEW035

Decode

TAF

TAF YPDN 120536Z 1206/1312 30014KT 9999 FEW035 FM121000 33005KT 9999 FEW025 FM130200 30014KT 9999 SCT035 PROB30 TEMPO 1207/1212 VRB25G40KT 1000 TSRA BKN010 SCT020CB PROB30 TEMPO 1217/1221 VRB25G40KT 1000 TSRA BKN010 SCT020CB PROB30 TEMPO 1306/1312 VRB25G40KT 1000 TSRA BKN010 SCT020CB

Decode

Destination Runways

ID Width Length Bearing (true) Bearing (mag) Surface Threshold Offset Overrun Length
11 197 ft / 60 m 10,997 ft / 3,352 m 109.02° 106.35° Asphalt 0 ft / 0 m 0 ft / 0 m
18 98 ft / 30 m 5,029 ft / 1,533 m 179.85° 177.18° Asphalt 0 ft / 0 m 0 ft / 0 m
29 197 ft / 60 m 10,997 ft / 3,352 m 289.02° 286.35° Asphalt 0 ft / 0 m 0 ft / 0 m
36 98 ft / 30 m 5,029 ft / 1,533 m 359.85° 357.18° Asphalt 0 ft / 0 m 0 ft / 0 m

Approach Navaids

Runway Type Ident Frequency Range Bearing (true) Bearing (mag) Slope Elevation
29 Localiser IDN 109.70 MHz 18 nm / 33 km 289.00° 286.33° - 103 ft / 31 m (AMSL)
29 Glidescope IDN 109.70 MHz 10 nm / 19 km 289.02° 286.35° 3.00° 103 ft / 31 m (AMSL)

Popular Alternatives